createdAt,value
2023-05-18T04:50:10.902Z,3.00
2023-05-18T04:55:14.277Z,2.50
2023-05-18T05:00:17.785Z,3.17
2023-05-18T05:05:21.589Z,2.80
2023-05-18T05:10:24.382Z,3.03
2023-05-18T05:15:27.259Z,3.60
2023-05-18T05:20:30.109Z,2.23
2023-05-18T05:25:33.182Z,2.93
2023-05-18T05:30:36.280Z,2.27
2023-05-18T05:35:39.314Z,2.80
2023-05-18T05:40:42.215Z,2.80
2023-05-18T05:45:45.004Z,2.67
2023-05-18T05:50:47.881Z,2.80
2023-05-18T05:55:50.767Z,2.17
2023-05-18T06:00:53.708Z,2.87
2023-05-18T06:05:56.704Z,1.90
2023-05-18T06:10:59.499Z,2.50
2023-05-18T06:16:02.326Z,2.70
2023-05-18T06:21:05.241Z,2.77
2023-05-18T06:26:08.024Z,2.17
2023-05-18T06:31:11.164Z,2.53
2023-05-18T06:36:14.848Z,3.50
2023-05-18T06:41:17.677Z,3.13
2023-05-18T06:46:24.640Z,1.90
2023-05-18T06:51:27.577Z,2.30
2023-05-18T06:56:31.525Z,2.17
2023-05-18T07:01:34.484Z,2.20
2023-05-18T07:06:37.316Z,2.10
2023-05-18T07:11:40.504Z,2.27
2023-05-18T07:16:44.308Z,2.30
2023-05-18T07:21:47.149Z,1.70
2023-05-18T07:26:49.955Z,1.57
2023-05-18T07:31:52.906Z,1.80
2023-05-18T07:36:56.110Z,1.47
2023-05-18T07:42:00.050Z,2.00
2023-05-18T07:47:02.980Z,1.87
2023-05-18T07:52:08.383Z,1.30
2023-05-18T07:57:11.229Z,1.80
2023-05-18T08:02:14.069Z,1.27
2023-05-18T08:07:18.455Z,1.50
2023-05-18T08:12:21.447Z,1.40
2023-05-18T08:17:24.272Z,1.80
2023-05-18T08:22:27.068Z,1.40
2023-05-18T08:27:30.069Z,1.60
2023-05-18T08:32:33.092Z,1.87
2023-05-18T08:37:37.396Z,1.73
2023-05-18T08:42:59.670Z,1.43
2023-05-18T08:48:04.175Z,1.50
2023-05-18T08:53:07.166Z,1.80
2023-05-18T08:58:10.303Z,2.10
2023-05-18T09:03:14.439Z,1.50
2023-05-18T09:08:17.304Z,1.73
2023-05-18T09:13:21.287Z,1.73
2023-05-18T09:18:25.550Z,1.40
2023-05-18T09:23:29.721Z,1.50
2023-05-18T09:28:38.388Z,2.20
2023-05-18T09:33:41.437Z,1.30
2023-05-18T09:38:46.939Z,1.37
2023-05-18T09:43:51.462Z,1.30
2023-05-18T09:48:55.216Z,1.73
2023-05-18T09:53:59.273Z,1.30
2023-05-18T09:59:10.300Z,1.53
2023-05-18T10:04:13.124Z,1.80
2023-05-18T10:09:16.838Z,2.10
2023-05-18T10:14:25.643Z,2.20
2023-05-18T10:19:29.063Z,1.80
2023-05-18T10:24:38.506Z,1.63
2023-05-18T10:29:41.888Z,2.17
2023-05-18T10:34:45.515Z,1.70
2023-05-18T10:39:50.398Z,2.07
2023-05-18T10:44:57.656Z,1.90
2023-05-18T10:50:00.786Z,1.60
2023-05-18T10:55:06.884Z,1.70
2023-05-18T11:00:10.651Z,1.70
2023-05-18T11:05:13.786Z,1.60
2023-05-18T11:10:16.691Z,2.37
2023-05-18T11:15:19.597Z,2.33
2023-05-18T11:20:26.345Z,1.67
2023-05-18T11:25:29.156Z,1.80
2023-05-18T11:30:36.441Z,1.67
2023-05-18T11:36:02.300Z,1.83
2023-05-18T11:41:05.377Z,1.90
2023-05-18T11:46:18.510Z,1.80
2023-05-18T11:51:25.020Z,1.83
2023-05-18T11:56:33.684Z,2.33
2023-05-18T12:01:36.588Z,1.43
2023-05-18T12:06:39.646Z,1.73
2023-05-18T12:11:42.761Z,1.97
2023-05-18T12:16:49.756Z,1.90
2023-05-18T12:21:52.796Z,1.73
2023-05-18T12:26:56.349Z,2.00
2023-05-18T12:31:59.215Z,1.83
2023-05-18T12:37:02.125Z,2.20
2023-05-18T12:42:13.127Z,1.70
2023-05-18T12:47:16.060Z,1.80
2023-05-18T12:52:21.238Z,1.60
2023-05-18T12:57:27.422Z,1.60
2023-05-18T13:02:38.303Z,1.93
2023-05-18T13:07:45.465Z,1.53
2023-05-18T13:12:49.431Z,2.20
2023-05-18T13:18:03.494Z,1.80
2023-05-18T13:23:08.597Z,1.90
2023-05-18T13:28:12.984Z,1.80
2023-05-18T13:33:19.830Z,1.90
2023-05-18T13:38:22.879Z,1.80
2023-05-18T13:43:25.665Z,2.47
2023-05-18T13:48:29.276Z,1.67
2023-05-18T13:53:32.115Z,2.20
2023-05-18T13:58:36.068Z,1.80
2023-05-18T14:03:40.573Z,1.90
2023-05-18T14:08:43.497Z,2.00
2023-05-18T14:13:46.285Z,1.90
2023-05-18T14:19:01.545Z,1.87
2023-05-18T14:24:09.889Z,2.10
2023-05-18T14:29:12.869Z,1.90
2023-05-18T14:34:15.714Z,1.67
2023-05-18T14:39:18.559Z,1.40
2023-05-18T14:44:21.362Z,1.10
2023-05-18T14:49:24.277Z,1.47
2023-05-18T14:54:27.129Z,1.73
2023-05-18T14:59:29.993Z,1.60
2023-05-18T15:04:32.807Z,1.60
2023-05-18T15:09:35.725Z,1.43
2023-05-18T15:14:38.555Z,1.20
2023-05-18T15:19:41.473Z,1.00
2023-05-18T15:24:44.304Z,0.93
2023-05-18T15:29:48.435Z,1.40
2023-05-18T15:34:52.713Z,1.47
2023-05-18T15:39:55.642Z,1.27
2023-05-18T15:44:58.432Z,1.53
2023-05-18T15:50:01.327Z,1.23
2023-05-18T15:55:04.328Z,1.13
2023-05-18T16:00:08.565Z,1.30
2023-05-18T16:05:11.492Z,1.23
2023-05-18T16:10:18.570Z,1.53
2023-05-18T16:15:24.422Z,1.57
2023-05-18T16:20:27.442Z,1.30
2023-05-18T16:25:32.528Z,1.20
2023-05-18T16:30:35.401Z,1.87
2023-05-18T16:35:38.333Z,1.17
2023-05-18T16:40:41.143Z,1.90
2023-05-18T16:45:44.014Z,1.77
2023-05-18T16:50:46.922Z,2.10
2023-05-18T16:55:50.032Z,1.60
2023-05-18T17:00:53.620Z,1.83
2023-05-18T17:05:56.684Z,2.60
2023-05-18T17:10:59.510Z,1.73
2023-05-18T17:16:02.373Z,2.10
2023-05-18T17:21:05.212Z,2.60
2023-05-18T17:26:08.239Z,3.00
2023-05-18T17:31:18.373Z,2.83
2023-05-18T17:36:21.378Z,2.30
2023-05-18T17:41:25.773Z,1.50
2023-05-18T17:46:28.702Z,1.97
2023-05-18T17:51:31.571Z,1.73
2023-05-18T17:56:43.580Z,1.87
2023-05-18T18:01:46.636Z,1.87
2023-05-18T18:06:50.016Z,1.97
2023-05-18T18:11:52.818Z,2.40
2023-05-18T18:16:57.725Z,2.03
2023-05-18T18:22:01.936Z,1.93
2023-05-18T18:27:05.064Z,2.50
2023-05-18T18:32:08.817Z,2.23
2023-05-18T18:37:11.844Z,2.03
2023-05-18T18:42:17.489Z,1.97
2023-05-18T18:47:23.246Z,2.07
2023-05-18T18:52:26.319Z,2.30
2023-05-18T18:57:29.134Z,2.40
2023-05-18T19:02:31.984Z,2.43
2023-05-18T19:07:35.190Z,3.10
2023-05-18T19:12:38.018Z,2.60
2023-05-18T19:17:46.076Z,3.30
2023-05-18T19:22:49.100Z,3.30
2023-05-18T19:27:53.000Z,3.30
2023-05-18T19:32:55.871Z,2.77
2023-05-18T19:37:59.817Z,3.20
2023-05-18T19:43:02.704Z,2.80
2023-05-18T19:48:06.034Z,2.23
2023-05-18T19:53:08.833Z,2.50
2023-05-18T19:58:11.683Z,2.30
2023-05-18T20:03:16.534Z,2.90
2023-05-18T20:08:19.492Z,3.03
2023-05-18T20:13:23.006Z,2.37
2023-05-18T20:18:28.625Z,2.07
2023-05-18T20:23:31.589Z,3.13
2023-05-18T20:28:35.146Z,2.70
2023-05-18T20:33:37.915Z,2.80
2023-05-18T20:38:41.810Z,2.47
2023-05-18T20:43:48.428Z,3.00
2023-05-18T20:48:55.375Z,2.60
2023-05-18T20:53:58.900Z,2.33
2023-05-18T20:59:02.598Z,2.67
2023-05-18T21:04:07.269Z,2.17
2023-05-18T21:09:10.714Z,2.97
2023-05-18T21:14:13.621Z,2.27
2023-05-18T21:19:16.905Z,2.50
2023-05-18T21:24:19.808Z,2.80
2023-05-18T21:29:22.632Z,2.50
2023-05-18T21:34:25.420Z,2.50
2023-05-18T21:39:28.242Z,2.57
2023-05-18T21:44:31.085Z,2.23
2023-05-18T21:49:33.914Z,2.50
2023-05-18T21:54:37.639Z,2.47
2023-05-18T21:59:40.579Z,2.17
2023-05-18T22:04:43.489Z,2.37
2023-05-18T22:09:46.451Z,2.90
2023-05-18T22:14:49.213Z,3.30
2023-05-18T22:19:52.018Z,2.67
2023-05-18T22:24:54.856Z,3.57
2023-05-18T22:29:57.869Z,3.93
2023-05-18T22:35:01.786Z,3.17
2023-05-18T22:40:06.508Z,3.80
2023-05-18T22:45:11.561Z,3.20
2023-05-18T22:50:14.581Z,2.83
2023-05-18T22:55:17.396Z,2.60
2023-05-18T23:00:20.351Z,2.90
2023-05-18T23:05:23.292Z,2.87
2023-05-18T23:10:26.538Z,2.40
2023-05-18T23:15:30.331Z,3.10
2023-05-18T23:20:34.621Z,2.73
2023-05-18T23:25:37.526Z,2.77
2023-05-18T23:30:40.580Z,2.47
2023-05-18T23:35:49.192Z,2.60
2023-05-18T23:40:54.105Z,2.10
2023-05-18T23:45:59.639Z,2.97
